createdAt,value
2019-05-02T00:00:16.290Z,11.50
2019-05-02T00:02:46.742Z,11.30
2019-05-02T00:05:18.248Z,10.90
2019-05-02T00:07:48.875Z,11.20
2019-05-02T00:10:24.843Z,10.80
2019-05-02T00:12:55.743Z,10.80
2019-05-02T00:15:26.145Z,10.90
2019-05-02T00:17:56.840Z,10.90
2019-05-02T00:20:28.656Z,11.00
2019-05-02T00:22:59.155Z,10.90
2019-05-02T00:25:30.001Z,11.00
2019-05-02T00:28:12.227Z,11.00
2019-05-02T00:30:41.022Z,10.80
2019-05-02T00:33:11.395Z,10.90
2019-05-02T00:35:46.039Z,10.80
2019-05-02T00:38:13.855Z,10.90
2019-05-02T00:40:46.508Z,10.60
2019-05-02T00:43:16.910Z,10.30
2019-05-02T00:45:47.635Z,10.30
2019-05-02T00:48:41.605Z,10.30
2019-05-02T00:51:13.189Z,10.40
2019-05-02T00:53:48.110Z,10.20
2019-05-02T00:56:16.380Z,10.30
2019-05-02T00:58:46.811Z,10.30
2019-05-02T01:01:37.662Z,10.40
2019-05-02T01:04:28.998Z,10.50
2019-05-02T01:07:00.061Z,10.30
2019-05-02T01:09:31.957Z,10.10
2019-05-02T01:12:08.481Z,10.30
2019-05-02T01:14:35.831Z,10.40
2019-05-02T01:17:06.244Z,10.50
2019-05-02T01:19:36.632Z,10.60
2019-05-02T01:22:10.750Z,10.10
2019-05-02T01:24:41.491Z,10.40
2019-05-02T01:27:20.573Z,10.10
2019-05-02T01:30:01.358Z,10.50
2019-05-02T01:32:55.139Z,10.60
2019-05-02T01:35:36.748Z,10.70
2019-05-02T01:38:14.898Z,10.40
2019-05-02T01:40:48.203Z,10.60
2019-05-02T01:43:26.783Z,10.60
2019-05-02T01:45:57.154Z,10.30
2019-05-02T01:48:27.584Z,10.60
2019-05-02T01:50:58.556Z,10.80
2019-05-02T01:53:34.064Z,10.90
2019-05-02T01:56:01.648Z,10.90
2019-05-02T01:58:32.385Z,10.80
2019-05-02T02:01:03.779Z,10.50
2019-05-02T02:03:34.206Z,10.70
2019-05-02T02:06:08.162Z,10.80
2019-05-02T02:08:37.305Z,11.00
2019-05-02T02:11:07.696Z,11.00
2019-05-02T02:13:38.147Z,10.70
2019-05-02T02:16:08.868Z,10.90
2019-05-02T02:18:45.419Z,11.00
2019-05-02T02:21:37.493Z,11.30
2019-05-02T02:24:15.127Z,11.30
2019-05-02T02:26:48.250Z,11.00
2019-05-02T02:29:17.928Z,10.80
2019-05-02T02:31:48.798Z,10.60
2019-05-02T02:34:21.156Z,10.50
2019-05-02T02:36:51.818Z,10.50
2019-05-02T02:39:22.190Z,10.60
2019-05-02T02:41:54.235Z,10.90
2019-05-02T02:44:56.097Z,10.70
2019-05-02T02:47:26.506Z,10.70
2019-05-02T02:50:16.263Z,10.70
2019-05-02T02:52:47.110Z,10.80
2019-05-02T02:55:22.097Z,10.60
2019-05-02T02:57:49.884Z,10.50
2019-05-02T03:00:20.336Z,10.80
2019-05-02T03:02:50.727Z,10.60
2019-05-02T03:05:25.879Z,10.70
2019-05-02T03:07:53.248Z,10.70
2019-05-02T03:10:27.843Z,10.80
2019-05-02T03:13:21.773Z,10.90
2019-05-02T03:15:52.545Z,10.80
2019-05-02T03:18:26.932Z,10.70
2019-05-02T03:20:55.776Z,10.70
2019-05-02T03:23:26.630Z,11.00
2019-05-02T03:25:59.424Z,10.70
2019-05-02T03:28:30.036Z,10.70
2019-05-02T03:31:11.231Z,10.60
2019-05-02T03:33:52.178Z,10.90
2019-05-02T03:36:05.494Z,11.20
2019-05-02T03:38:36.998Z,11.40
2019-05-02T03:41:13.366Z,11.20
2019-05-02T03:43:39.613Z,11.20
2019-05-02T03:46:13.566Z,11.30
2019-05-02T03:48:42.702Z,11.30
2019-05-02T03:51:21.641Z,11.40
2019-05-02T03:53:45.789Z,11.30
2019-05-02T03:56:16.174Z,11.10
2019-05-02T03:58:48.338Z,11.00
2019-05-02T04:01:20.341Z,11.10
2019-05-02T04:04:14.117Z,11.30
2019-05-02T04:06:43.146Z,11.50
2019-05-02T04:09:41.989Z,11.40
2019-05-02T04:12:18.984Z,11.40
2019-05-02T04:14:41.089Z,11.50
2019-05-02T04:17:12.681Z,11.50
2019-05-02T04:19:44.038Z,11.40
2019-05-02T04:22:16.330Z,11.30
2019-05-02T04:24:54.567Z,11.40
2019-05-02T04:27:19.543Z,11.50
2019-05-02T04:29:49.881Z,11.50
2019-05-02T04:32:20.274Z,11.50
2019-05-02T04:34:55.330Z,11.40
2019-05-02T04:37:22.754Z,11.50
2019-05-02T04:39:53.708Z,11.50
2019-05-02T04:42:29.075Z,11.50
2019-05-02T04:45:16.272Z,11.60
2019-05-02T04:47:30.570Z,11.50
2019-05-02T04:50:08.037Z,11.40
2019-05-02T04:52:38.334Z,11.50
2019-05-02T04:55:19.754Z,11.60
2019-05-02T04:57:47.396Z,11.60
2019-05-02T05:00:12.142Z,11.60
2019-05-02T05:02:42.533Z,11.70
2019-05-02T05:05:17.213Z,11.70
2019-05-02T05:07:49.547Z,11.80
2019-05-02T05:10:20.611Z,11.70
2019-05-02T05:12:51.250Z,11.80
2019-05-02T05:15:35.900Z,11.90
2019-05-02T05:17:53.799Z,11.90
2019-05-02T05:20:24.187Z,11.70
2019-05-02T05:22:54.686Z,11.80
2019-05-02T05:25:31.320Z,11.50
2019-05-02T05:28:05.914Z,11.70
2019-05-02T05:30:37.596Z,11.90
2019-05-02T05:33:07.660Z,11.80
2019-05-02T05:35:43.198Z,11.70
2019-05-02T05:38:11.202Z,11.90
2019-05-02T05:40:41.605Z,11.60
2019-05-02T05:43:15.613Z,11.50
2019-05-02T05:45:54.006Z,11.40
2019-05-02T05:48:20.666Z,11.60
2019-05-02T05:50:51.056Z,11.50
2019-05-02T05:53:24.239Z,11.90
2019-05-02T05:55:58.980Z,11.60
2019-05-02T05:58:28.394Z,11.60
2019-05-02T06:00:59.871Z,11.80
2019-05-02T06:03:33.960Z,11.90
2019-05-02T06:06:02.662Z,11.80
2019-05-02T06:08:33.765Z,11.90
2019-05-02T06:11:04.203Z,11.80
2019-05-02T06:13:34.575Z,11.80
2019-05-02T06:16:05.397Z,12.00
2019-05-02T06:18:41.793Z,12.10
2019-05-02T06:21:09.241Z,11.80
2019-05-02T06:23:41.671Z,12.00
2019-05-02T06:26:13.719Z,12.20
2019-05-02T06:28:45.618Z,12.30
2019-05-02T06:31:17.183Z,12.30
2019-05-02T06:33:47.605Z,12.50
2019-05-02T06:36:18.073Z,12.50
2019-05-02T06:38:52.290Z,12.50
2019-05-02T06:41:22.288Z,12.50
2019-05-02T06:43:53.073Z,12.40
2019-05-02T06:46:27.833Z,12.60
2019-05-02T06:48:55.645Z,12.70
2019-05-02T06:51:26.015Z,12.60
2019-05-02T06:53:56.904Z,12.20
2019-05-02T06:56:27.875Z,12.20
2019-05-02T06:58:58.249Z,12.50
2019-05-02T07:01:28.752Z,12.70
2019-05-02T07:03:59.734Z,12.80
2019-05-02T07:06:30.483Z,13.00
2019-05-02T07:09:02.739Z,12.90
2019-05-02T07:11:39.026Z,12.90
2019-05-02T07:14:13.628Z,12.80
2019-05-02T07:16:49.628Z,12.40
2019-05-02T07:19:27.423Z,12.90
2019-05-02T07:21:58.570Z,13.00
2019-05-02T07:24:30.749Z,13.10
2019-05-02T07:27:02.660Z,13.10
2019-05-02T07:29:33.216Z,13.10
2019-05-02T07:32:05.979Z,13.20
2019-05-02T07:34:36.645Z,13.40
2019-05-02T07:37:12.495Z,13.40
2019-05-02T07:39:40.898Z,13.70
2019-05-02T07:42:12.819Z,13.80
2019-05-02T07:44:43.268Z,13.90
2019-05-02T07:47:13.669Z,14.10
2019-05-02T07:49:44.102Z,14.00
2019-05-02T07:52:14.589Z,14.10
2019-05-02T07:54:44.954Z,14.00
2019-05-02T07:57:15.330Z,14.00
2019-05-02T07:59:45.748Z,14.10
2019-05-02T08:02:20.352Z,14.10
2019-05-02T08:04:48.800Z,14.50
2019-05-02T08:07:21.174Z,14.00
2019-05-02T08:09:51.308Z,14.50
2019-05-02T08:12:22.001Z,14.70
2019-05-02T08:14:52.418Z,14.40
2019-05-02T08:17:23.100Z,14.70
2019-05-02T08:19:53.830Z,14.60
2019-05-02T08:22:24.414Z,14.70
2019-05-02T08:24:54.764Z,15.10
2019-05-02T08:27:39.014Z,15.40
2019-05-02T08:30:18.890Z,15.70
2019-05-02T08:32:49.292Z,16.10
2019-05-02T08:35:20.248Z,16.00
2019-05-02T08:37:50.902Z,16.20
2019-05-02T08:40:21.258Z,16.20
2019-05-02T08:42:52.002Z,15.90
2019-05-02T08:45:22.689Z,15.70
2019-05-02T08:47:53.142Z,16.20
2019-05-02T08:50:27.149Z,16.00
2019-05-02T08:52:55.864Z,16.40
2019-05-02T08:55:26.246Z,16.20
2019-05-02T08:57:56.982Z,15.70
2019-05-02T09:00:32.040Z,16.30
2019-05-02T09:03:02.689Z,15.90
2019-05-02T09:05:37.004Z,16.60
2019-05-02T09:08:04.603Z,16.50
2019-05-02T09:10:37.053Z,17.10
2019-05-02T09:13:07.145Z,17.10
2019-05-02T09:15:46.304Z,16.70
2019-05-02T09:18:14.521Z,16.60
2019-05-02T09:20:46.913Z,17.00
2019-05-02T09:23:17.200Z,16.90
2019-05-02T09:25:48.370Z,16.40
2019-05-02T09:28:22.628Z,16.60
2019-05-02T09:30:52.411Z,17.20
2019-05-02T09:33:22.855Z,17.10
2019-05-02T09:35:53.202Z,18.10
2019-05-02T09:38:23.581Z,18.50
2019-05-02T09:40:56.236Z,18.70
2019-05-02T09:43:29.224Z,18.70
2019-05-02T09:45:58.765Z,19.10
2019-05-02T09:48:29.124Z,19.50
2019-05-02T09:51:04.549Z,19.60
2019-05-02T09:53:32.338Z,19.80
2019-05-02T09:56:06.639Z,19.00
2019-05-02T09:58:37.042Z,19.70
2019-05-02T10:01:32.190Z,20.20
2019-05-02T10:04:02.897Z,19.40
2019-05-02T10:06:34.210Z,19.80
2019-05-02T10:09:06.639Z,20.00
2019-05-02T10:11:37.130Z,19.90
2019-05-02T10:14:07.912Z,20.30
2019-05-02T10:16:38.632Z,19.40
2019-05-02T10:19:10.877Z,19.30
2019-05-02T10:21:42.229Z,19.80
2019-05-02T10:24:12.926Z,20.60
2019-05-02T10:26:43.313Z,21.00
2019-05-02T10:29:14.017Z,19.70
2019-05-02T10:31:44.379Z,20.00
2019-05-02T10:34:17.651Z,21.40
2019-05-02T10:36:54.180Z,21.00
2019-05-02T10:39:23.094Z,20.60
2019-05-02T10:41:52.875Z,20.80
2019-05-02T10:44:27.134Z,20.40
2019-05-02T10:46:59.153Z,19.90
2019-05-02T10:49:42.644Z,21.20
2019-05-02T10:52:13.512Z,21.20
2019-05-02T10:54:43.921Z,22.10
2019-05-02T10:57:14.513Z,21.80
2019-05-02T10:59:44.872Z,21.70
2019-05-02T11:02:37.216Z,19.90
2019-05-02T11:05:16.793Z,20.00
2019-05-02T11:07:45.071Z,20.40
2019-05-02T11:10:15.889Z,21.00
2019-05-02T11:13:02.287Z,21.40
2019-05-02T11:15:52.390Z,20.90
2019-05-02T11:19:13.334Z,18.90
2019-05-02T11:21:55.377Z,19.50
2019-05-02T11:24:16.143Z,19.80
2019-05-02T11:26:46.837Z,19.10
2019-05-02T11:29:17.222Z,18.90
2019-05-02T11:31:48.667Z,18.30
2019-05-02T11:34:19.263Z,18.10
2019-05-02T11:36:49.581Z,18.10
2019-05-02T11:39:27.661Z,18.30
2019-05-02T11:41:52.814Z,18.10
2019-05-02T11:44:23.686Z,18.20
2019-05-02T11:46:54.097Z,18.40
2019-05-02T11:49:24.533Z,19.20
2019-05-02T11:51:57.203Z,19.20
2019-05-02T11:54:27.949Z,20.20
2019-05-02T11:56:58.289Z,20.90
2019-05-02T11:59:29.319Z,20.80
2019-05-02T12:02:17.452Z,20.10
2019-05-02T12:04:47.295Z,19.90
2019-05-02T12:07:15.619Z,20.30
2019-05-02T12:09:52.117Z,20.20
2019-05-02T12:12:18.128Z,20.70
2019-05-02T12:14:48.465Z,20.00
2019-05-02T12:17:21.684Z,19.40
2019-05-02T12:19:52.383Z,19.60
2019-05-02T12:22:22.804Z,19.80
2019-05-02T12:24:53.990Z,19.20
2019-05-02T12:27:24.338Z,18.00
2019-05-02T12:29:57.672Z,18.10
2019-05-02T12:32:27.196Z,18.60
2019-05-02T12:35:17.068Z,18.50
2019-05-02T12:37:52.398Z,18.10
2019-05-02T12:40:21.611Z,18.20
2019-05-02T12:42:53.925Z,18.00
2019-05-02T12:45:24.291Z,17.90
2019-05-02T12:47:54.629Z,17.40
2019-05-02T12:50:25.361Z,17.60
2019-05-02T12:52:56.149Z,17.70
2019-05-02T12:55:26.509Z,17.60
2019-05-02T12:57:57.150Z,17.90
2019-05-02T13:00:27.886Z,17.00
2019-05-02T13:03:19.968Z,17.40
2019-05-02T13:05:52.141Z,17.30
2019-05-02T13:08:25.304Z,17.50
2019-05-02T13:11:06.863Z,17.50
2019-05-02T13:13:37.310Z,17.40
2019-05-02T13:16:07.962Z,16.80
2019-05-02T13:18:38.483Z,16.00
2019-05-02T13:21:15.139Z,15.40
2019-05-02T13:23:48.602Z,15.10
2019-05-02T13:26:22.895Z,14.90
2019-05-02T13:28:51.727Z,14.60
2019-05-02T13:31:29.595Z,14.60
2019-05-02T13:34:19.015Z,14.20
2019-05-02T13:36:51.755Z,14.30
2019-05-02T13:39:28.974Z,14.20
2019-05-02T13:41:59.473Z,14.00
2019-05-02T13:44:32.640Z,14.20
2019-05-02T13:47:03.218Z,14.40
2019-05-02T13:49:33.838Z,14.50
2019-05-02T13:52:04.699Z,14.20
2019-05-02T13:54:35.454Z,14.30
2019-05-02T13:57:05.995Z,14.70
2019-05-02T13:59:36.619Z,14.40
2019-05-02T14:02:12.120Z,14.60
2019-05-02T14:04:44.414Z,15.00
2019-05-02T14:07:17.446Z,15.10
2019-05-02T14:09:58.245Z,14.90
2019-05-02T14:12:54.202Z,14.80
2019-05-02T14:15:37.789Z,14.90
2019-05-02T14:18:08.549Z,15.10
2019-05-02T14:20:38.986Z,15.10
2019-05-02T14:23:09.370Z,14.70
2019-05-02T14:25:39.747Z,14.90
2019-05-02T14:28:10.122Z,14.90
2019-05-02T14:30:44.173Z,14.60
2019-05-02T14:33:17.491Z,14.90
2019-05-02T14:35:48.803Z,15.00
2019-05-02T14:38:19.124Z,14.50
2019-05-02T14:41:08.126Z,14.50
2019-05-02T14:43:57.122Z,14.90
2019-05-02T14:46:34.135Z,15.10
2019-05-02T14:49:05.577Z,14.90
2019-05-02T14:51:36.692Z,15.20
2019-05-02T14:54:09.101Z,15.30
2019-05-02T14:57:01.943Z,15.40
2019-05-02T14:59:32.549Z,15.70
2019-05-02T15:02:07.679Z,15.90
2019-05-02T15:04:44.679Z,15.90
2019-05-02T15:07:12.869Z,15.90
2019-05-02T15:09:43.409Z,16.00
2019-05-02T15:12:18.571Z,16.00
2019-05-02T15:14:49.235Z,16.00
2019-05-02T15:17:20.332Z,16.00
2019-05-02T15:19:52.638Z,15.90
2019-05-02T15:22:27.518Z,16.20
2019-05-02T15:24:59.225Z,16.00
2019-05-02T15:27:40.229Z,16.00
2019-05-02T15:30:06.810Z,16.20
2019-05-02T15:32:48.790Z,16.30
2019-05-02T15:35:27.243Z,16.20
2019-05-02T15:38:02.774Z,16.00
2019-05-02T15:43:08.996Z,15.40
2019-05-02T15:45:36.817Z,15.70
2019-05-02T15:48:27.658Z,15.10
2019-05-02T15:51:00.105Z,15.30
2019-05-02T15:53:43.651Z,15.30
2019-05-02T15:56:19.871Z,15.30
2019-05-02T15:58:43.842Z,15.40
2019-05-02T16:01:47.731Z,15.40
2019-05-02T16:04:17.286Z,15.40
2019-05-02T16:06:48.872Z,15.00
2019-05-02T16:09:21.515Z,14.90
2019-05-02T16:11:53.197Z,14.60
2019-05-02T16:14:27.178Z,14.80
2019-05-02T16:16:56.034Z,14.70
2019-05-02T16:19:29.336Z,15.00
2019-05-02T16:22:07.973Z,15.20
2019-05-02T16:24:37.864Z,15.00
2019-05-02T16:27:08.986Z,15.30
2019-05-02T16:29:41.712Z,15.30
2019-05-02T16:32:31.005Z,15.50
2019-05-02T16:35:11.955Z,15.50
2019-05-02T16:37:36.775Z,15.50
2019-05-02T16:40:12.045Z,15.60
2019-05-02T16:42:44.828Z,15.60
2019-05-02T16:45:16.760Z,15.70
2019-05-02T16:48:00.441Z,15.60
2019-05-02T16:50:32.367Z,15.40
2019-05-02T16:53:02.095Z,15.40
2019-05-02T16:55:33.152Z,15.20
2019-05-02T16:58:06.898Z,15.00
2019-05-02T17:00:37.110Z,15.30
2019-05-02T17:03:22.735Z,15.10
2019-05-02T17:05:49.752Z,15.20
2019-05-02T17:08:27.590Z,15.30
2019-05-02T17:11:04.879Z,15.30
2019-05-02T17:13:35.929Z,15.30
2019-05-02T17:16:13.010Z,15.30
2019-05-02T17:18:38.620Z,15.10
2019-05-02T17:21:09.042Z,15.00
2019-05-02T17:23:42.912Z,15.20
2019-05-02T17:26:12.300Z,15.20
2019-05-02T17:28:46.947Z,15.10
2019-05-02T17:31:19.216Z,15.10
2019-05-02T17:33:51.065Z,15.00
2019-05-02T17:36:23.721Z,14.90
2019-05-02T17:38:54.418Z,14.80
2019-05-02T17:41:24.177Z,14.90
2019-05-02T17:43:58.801Z,14.90
2019-05-02T17:46:50.832Z,14.90
2019-05-02T17:49:24.726Z,14.70
2019-05-02T17:52:11.245Z,14.70
2019-05-02T17:54:42.338Z,14.70
2019-05-02T17:57:13.944Z,14.70
2019-05-02T17:59:45.611Z,14.80
2019-05-02T18:02:16.113Z,14.70
2019-05-02T18:04:51.058Z,14.60
2019-05-02T18:07:19.032Z,14.70
2019-05-02T18:09:49.402Z,14.60
2019-05-02T18:12:21.732Z,14.70
2019-05-02T18:14:59.034Z,14.50
2019-05-02T18:17:27.588Z,14.50
2019-05-02T18:19:56.678Z,14.30
2019-05-02T18:22:28.315Z,14.50
2019-05-02T18:25:05.013Z,14.60
2019-05-02T18:27:35.489Z,14.40
2019-05-02T18:30:08.841Z,14.50
2019-05-02T18:32:41.922Z,14.50
2019-05-02T18:35:13.476Z,14.30
2019-05-02T18:37:46.790Z,14.40
2019-05-02T18:40:24.387Z,14.30
2019-05-02T18:42:56.626Z,14.20
2019-05-02T18:45:34.689Z,14.30
2019-05-02T18:48:06.936Z,14.30
2019-05-02T18:50:47.007Z,14.20
2019-05-02T18:53:18.501Z,13.90
2019-05-02T18:55:56.720Z,14.10
2019-05-02T18:58:26.365Z,14.20
2019-05-02T19:00:56.695Z,14.20
2019-05-02T19:03:27.124Z,14.20
2019-05-02T19:05:58.494Z,14.00
2019-05-02T19:08:32.184Z,14.00
2019-05-02T19:11:10.030Z,13.70
2019-05-02T19:13:42.847Z,13.70
2019-05-02T19:16:13.117Z,13.70
2019-05-02T19:18:43.396Z,13.40
2019-05-02T19:21:13.720Z,13.40
2019-05-02T19:23:44.331Z,13.30
2019-05-02T19:26:15.371Z,13.20
2019-05-02T19:29:08.330Z,13.20
2019-05-02T19:31:46.185Z,13.40
2019-05-02T19:34:16.714Z,12.90
2019-05-02T19:36:47.205Z,13.00
2019-05-02T19:39:33.264Z,13.10
2019-05-02T19:42:04.065Z,12.60
2019-05-02T19:44:41.961Z,12.80
2019-05-02T19:47:17.463Z,12.80
2019-05-02T19:49:47.206Z,12.70
2019-05-02T19:52:17.436Z,12.80
2019-05-02T19:54:48.012Z,12.50
2019-05-02T19:57:24.810Z,12.80
2019-05-02T19:59:57.109Z,12.60
2019-05-02T20:02:24.909Z,12.70
2019-05-02T20:04:55.534Z,12.70
2019-05-02T20:07:26.219Z,12.70
2019-05-02T20:10:01.930Z,12.70
2019-05-02T20:12:32.407Z,12.60
2019-05-02T20:15:03.273Z,12.80
2019-05-02T20:17:33.976Z,12.40
2019-05-02T20:20:49.745Z,12.50
2019-05-02T20:23:28.359Z,12.30
2019-05-02T20:25:52.342Z,12.40
2019-05-02T20:28:31.738Z,12.40
2019-05-02T20:31:05.426Z,12.50
2019-05-02T20:33:35.858Z,12.60
2019-05-02T20:36:06.877Z,12.70
2019-05-02T20:38:43.318Z,12.40
2019-05-02T20:41:13.685Z,12.50
2019-05-02T20:43:46.051Z,12.40
2019-05-02T20:46:16.697Z,12.30
2019-05-02T20:48:47.552Z,12.20
2019-05-02T20:51:37.064Z,12.10
2019-05-02T20:54:08.054Z,11.80
2019-05-02T20:56:38.855Z,11.90
2019-05-02T20:59:09.296Z,12.00
2019-05-02T21:01:40.293Z,12.00
2019-05-02T21:04:12.089Z,12.10
2019-05-02T21:06:53.183Z,11.70
2019-05-02T21:09:41.876Z,11.90
2019-05-02T21:12:13.322Z,11.80
2019-05-02T21:14:43.673Z,11.60
2019-05-02T21:17:14.177Z,11.50
2019-05-02T21:19:44.562Z,11.40
2019-05-02T21:22:22.240Z,11.50
2019-05-02T21:24:58.881Z,11.60
2019-05-02T21:27:29.268Z,11.50
2019-05-02T21:30:00.026Z,11.70
2019-05-02T21:32:32.149Z,11.80
2019-05-02T21:35:02.881Z,11.80
2019-05-02T21:37:33.482Z,11.80
2019-05-02T21:40:04.155Z,11.60
2019-05-02T21:42:34.627Z,11.50
2019-05-02T21:45:05.188Z,11.80
2019-05-02T21:47:35.693Z,11.70
2019-05-02T21:50:23.859Z,11.50
2019-05-02T21:53:19.236Z,11.30
2019-05-02T21:56:08.953Z,11.40
2019-05-02T21:58:42.780Z,11.60
2019-05-02T22:01:14.235Z,11.30
2019-05-02T22:03:44.743Z,11.40
2019-05-02T22:06:15.183Z,11.50
2019-05-02T22:08:45.585Z,11.50
2019-05-02T22:11:16.064Z,11.40
2019-05-02T22:13:46.511Z,11.50
2019-05-02T22:16:16.945Z,11.40
2019-05-02T22:18:47.273Z,11.40
2019-05-02T22:21:17.747Z,11.20
2019-05-02T22:23:48.176Z,11.40
2019-05-02T22:26:18.905Z,10.90
2019-05-02T22:28:49.505Z,11.10
2019-05-02T22:31:19.921Z,11.10
2019-05-02T22:33:52.704Z,11.20
2019-05-02T22:36:22.642Z,11.20
2019-05-02T22:38:58.140Z,11.00
2019-05-02T22:41:29.082Z,10.90
2019-05-02T22:43:59.443Z,11.00
2019-05-02T22:46:46.105Z,11.00
2019-05-02T22:49:16.920Z,11.00
2019-05-02T22:51:47.286Z,11.00
2019-05-02T22:54:26.951Z,11.10
2019-05-02T22:56:54.520Z,10.80
2019-05-02T22:59:27.371Z,10.70
2019-05-02T23:01:58.514Z,11.10
2019-05-02T23:04:29.551Z,11.00
2019-05-02T23:07:02.150Z,11.00
2019-05-02T23:09:32.314Z,11.10
2019-05-02T23:12:03.116Z,11.10
2019-05-02T23:14:33.627Z,10.80
2019-05-02T23:17:04.360Z,10.90
2019-05-02T23:19:34.755Z,10.90
2019-05-02T23:22:05.245Z,10.70
2019-05-02T23:24:48.363Z,10.80
2019-05-02T23:27:42.373Z,11.10
2019-05-02T23:30:18.096Z,10.50
2019-05-02T23:32:48.752Z,10.50
2019-05-02T23:35:19.194Z,10.60
2019-05-02T23:37:49.594Z,10.80
2019-05-02T23:40:20.206Z,10.90
2019-05-02T23:42:52.400Z,10.70
2019-05-02T23:45:23.183Z,10.90
2019-05-02T23:47:53.574Z,10.80
2019-05-02T23:50:24.216Z,10.80
2019-05-02T23:52:54.719Z,10.90
2019-05-02T23:55:25.219Z,10.70
2019-05-02T23:57:55.549Z,10.80
